Time;durP1;ratioP1;P1;durP2;ratioP2;P2;SDS_P1;SDS_P2;PMS_P1;PMS_P2;Temp;Humidity;BMP_temperature;BMP_pressure;BME280_temperature;BME280_humidity;BME280_pressure;Samples;Min_cycle;Max_cycle;Signal;HPM_P1;HPM_P2
2021/03/02 00:00:39;;;;;;;20.38;11.40;;;;;;;;;;5092801;28;20077;-72
2021/03/02 00:03:06;;;;;;;19.50;10.20;;;;;;;;;;5092954;28;20027;-71
2021/03/02 00:05:33;;;;;;;19.02;10.30;;;;;;;;;;5092325;28;20020;-71
2021/03/02 00:08:00;;;;;;;23.42;12.68;;;;;;;;;;5092716;28;20040;-72
2021/03/02 00:10:26;;;;;;;18.98;10.57;;;;;;;;;;5092636;28;20024;-71
2021/03/02 00:12:52;;;;;;;18.20;10.48;;;;;;;;;;5092257;28;20020;-72
2021/03/02 00:15:18;;;;;;;17.58;9.98;;;;;;;;;;5092824;28;20113;-72
2021/03/02 00:17:49;;;;;;;17.23;10.60;;;;;;;;;;5092308;28;20024;-72
2021/03/02 00:20:23;;;;;;;21.60;13.43;;;;;;;;;;5092202;28;20031;-71
2021/03/02 00:22:49;;;;;;;20.05;10.68;;;;;;;;;;5092498;28;20024;-71
2021/03/02 00:25:16;;;;;;;21.25;11.73;;;;;;;;;;5092418;28;20028;-71
2021/03/02 00:27:42;;;;;;;18.45;11.85;;;;;;;;;;5092054;28;20020;-71
2021/03/02 00:30:08;;;;;;;25.40;14.88;;;;;;;;;;5092489;28;20380;-72
2021/03/02 00:32:35;;;;;;;29.45;16.02;;;;;;;;;;5092364;28;20062;-72
2021/03/02 00:35:01;;;;;;;26.70;14.10;;;;;;;;;;5092151;28;20039;-72
2021/03/02 00:37:27;;;;;;;21.63;14.05;;;;;;;;;;5092486;28;20024;-72
2021/03/02 00:39:53;;;;;;;26.10;15.10;;;;;;;;;;5093281;28;20032;-72
2021/03/02 00:42:19;;;;;;;30.02;15.27;;;;;;;;;;5096072;28;20020;-72
2021/03/02 00:44:46;;;;;;;23.23;14.35;;;;;;;;;;5096329;28;20431;-71
2021/03/02 00:47:12;;;;;;;26.02;15.15;;;;;;;;;;5095999;28;20099;-71
2021/03/02 00:49:38;;;;;;;23.50;13.05;;;;;;;;;;5096433;28;20024;-71
2021/03/02 00:52:04;;;;;;;23.98;13.93;;;;;;;;;;5096317;28;20032;-72
2021/03/02 00:54:30;;;;;;;27.40;15.48;;;;;;;;;;5095930;28;20031;-72
2021/03/02 00:56:57;;;;;;;29.50;14.73;;;;;;;;;;5096404;28;20102;-72
2021/03/02 00:59:23;;;;;;;26.58;14.77;;;;;;;;;;5096119;28;20032;-72
2021/03/02 01:01:49;;;;;;;26.75;15.68;;;;;;;;;;5095956;28;20409;-72
2021/03/02 01:04:15;;;;;;;29.42;14.80;;;;;;;;;;5095961;28;20031;-71
2021/03/02 01:06:41;;;;;;;21.65;13.30;;;;;;;;;;5096041;28;20020;-71
2021/03/02 01:09:09;;;;;;;31.70;16.10;;;;;;;;;;5095470;28;20031;-71
2021/03/02 01:11:35;;;;;;;28.65;16.38;;;;;;;;;;5095904;28;20388;-71
2021/03/02 01:14:02;;;;;;;25.95;15.55;;;;;;;;;;5096023;28;20106;-70
2021/03/02 01:16:28;;;;;;;23.33;14.25;;;;;;;;;;5095589;28;20460;-70
2021/03/02 01:18:54;;;;;;;21.25;13.25;;;;;;;;;;5095461;28;20048;-71
2021/03/02 01:21:20;;;;;;;22.17;14.48;;;;;;;;;;5095676;28;20104;-70
2021/03/02 01:23:47;;;;;;;24.15;13.50;;;;;;;;;;5095657;28;20020;-70
2021/03/02 01:26:13;;;;;;;30.30;18.17;;;;;;;;;;5094250;28;20078;-70
2021/03/02 01:28:40;;;;;;;24.63;15.15;;;;;;;;;;5095576;28;20225;-71
2021/03/02 01:31:06;;;;;;;25.02;15.40;;;;;;;;;;5095123;28;20077;-71
2021/03/02 01:33:32;;;;;;;27.45;15.02;;;;;;;;;;5095613;28;20024;-71
2021/03/02 01:35:58;;;;;;;26.30;13.20;;;;;;;;;;5095579;28;20095;-71
2021/03/02 01:38:24;;;;;;;24.38;13.32;;;;;;;;;;5095015;28;20103;-72
2021/03/02 01:40:51;;;;;;;23.55;13.68;;;;;;;;;;5095285;28;20024;-71
2021/03/02 01:43:17;;;;;;;25.50;13.90;;;;;;;;;;5095298;28;20361;-71
2021/03/02 01:45:43;;;;;;;27.95;16.33;;;;;;;;;;5094978;28;20027;-71
2021/03/02 01:48:09;;;;;;;23.65;16.02;;;;;;;;;;5095129;28;20030;-71
2021/03/02 01:50:35;;;;;;;26.80;15.18;;;;;;;;;;5094565;28;20107;-71
2021/03/02 01:53:02;;;;;;;26.92;14.55;;;;;;;;;;5095155;28;20024;-71
2021/03/02 01:55:28;;;;;;;23.67;14.93;;;;;;;;;;5095314;28;20503;-71
2021/03/02 01:57:54;;;;;;;28.95;17.30;;;;;;;;;;5094541;28;20024;-71
2021/03/02 02:00:28;;;;;;;28.10;15.68;;;;;;;;;;5094972;28;20038;-71
2021/03/02 02:03:13;;;;;;;27.77;16.27;;;;;;;;;;5094877;28;20016;-71
2021/03/02 02:05:45;;;;;;;27.05;15.98;;;;;;;;;;5094367;28;20024;-71
2021/03/02 02:08:12;;;;;;;26.05;14.07;;;;;;;;;;5094744;28;20091;-71
2021/03/02 02:10:48;;;;;;;26.70;15.45;;;;;;;;;;5094714;28;20560;-71
2021/03/02 02:13:19;;;;;;;31.95;16.30;;;;;;;;;;5094404;28;20384;-72
2021/03/02 02:15:47;;;;;;;24.75;13.98;;;;;;;;;;5094943;28;20020;-72
2021/03/02 02:18:22;;;;;;;26.05;14.50;;;;;;;;;;5094308;28;20044;-71
2021/03/02 02:21:07;;;;;;;24.17;14.70;;;;;;;;;;5094223;28;20423;-71
2021/03/02 02:23:55;;;;;;;25.70;13.98;;;;;;;;;;5094585;28;20028;-71
2021/03/02 02:26:43;;;;;;;25.90;16.25;;;;;;;;;;5094126;28;20031;-71
2021/03/02 02:29:10;;;;;;;23.13;13.98;;;;;;;;;;5094724;28;20392;-71
2021/03/02 02:31:38;;;;;;;25.90;16.05;;;;;;;;;;5094422;28;20016;-71
2021/03/02 02:34:04;;;;;;;25.63;14.95;;;;;;;;;;5094041;28;20031;-72
2021/03/02 02:36:31;;;;;;;23.58;14.85;;;;;;;;;;5093075;28;20487;-72
2021/03/02 02:38:59;;;;;;;22.90;14.00;;;;;;;;;;5094105;28;20020;-71
2021/03/02 02:41:27;;;;;;;22.40;14.07;;;;;;;;;;5093772;28;20426;-71
2021/03/02 02:43:54;;;;;;;26.77;15.02;;;;;;;;;;5094116;28;20028;-71
2021/03/02 02:46:20;;;;;;;20.40;12.65;;;;;;;;;;5094026;28;20078;-71
2021/03/02 02:48:48;;;;;;;22.92;12.63;;;;;;;;;;5093597;28;20028;-71
2021/03/02 02:51:14;;;;;;;19.27;11.32;;;;;;;;;;5093972;28;20051;-72
2021/03/02 02:53:41;;;;;;;22.88;12.73;;;;;;;;;;5093642;28;20380;-72
2021/03/02 02:56:08;;;;;;;25.65;14.20;;;;;;;;;;5094137;28;20028;-72
2021/03/02 02:58:40;;;;;;;30.42;17.10;;;;;;;;;;5093788;28;20037;-72
2021/03/02 03:01:08;;;;;;;23.05;13.30;;;;;;;;;;5093427;28;20016;-71
2021/03/02 03:03:36;;;;;;;28.02;16.50;;;;;;;;;;5092865;28;20070;-71
2021/03/02 03:06:05;;;;;;;27.00;17.10;;;;;;;;;;5093672;28;20031;-71
2021/03/02 03:08:33;;;;;;;28.40;17.63;;;;;;;;;;5093192;28;20054;-72
2021/03/02 03:11:00;;;;;;;28.00;16.75;;;;;;;;;;5093573;28;20028;-71
2021/03/02 03:13:29;;;;;;;31.52;16.30;;;;;;;;;;5093607;28;20047;-71
2021/03/02 03:15:59;;;;;;;32.08;17.83;;;;;;;;;;5092089;28;20023;-71
2021/03/02 03:18:27;;;;;;;29.55;17.83;;;;;;;;;;5093182;28;20131;-71
2021/03/02 03:20:56;;;;;;;26.20;16.30;;;;;;;;;;5093431;28;20020;-71
2021/03/02 03:23:22;;;;;;;25.15;16.48;;;;;;;;;;5093016;28;20028;-71
2021/03/02 03:25:49;;;;;;;29.58;16.88;;;;;;;;;;5091982;28;20027;-71
2021/03/02 03:28:16;;;;;;;31.90;17.70;;;;;;;;;;5093225;28;20129;-71
2021/03/02 03:30:42;;;;;;;29.95;15.05;;;;;;;;;;5092867;28;20028;-71
2021/03/02 03:33:10;;;;;;;27.55;16.88;;;;;;;;;;5093191;28;20020;-71
2021/03/02 03:35:37;;;;;;;24.65;15.60;;;;;;;;;;5092030;28;20028;-71
2021/03/02 03:38:04;;;;;;;26.92;16.67;;;;;;;;;;5092777;28;20020;-71
2021/03/02 03:40:30;;;;;;;27.73;17.92;;;;;;;;;;5093288;28;20399;-71
2021/03/02 03:42:56;;;;;;;30.63;18.38;;;;;;;;;;5092617;28;20016;-71
2021/03/02 03:45:22;;;;;;;30.17;17.45;;;;;;;;;;5092958;28;20118;-71
2021/03/02 03:47:48;;;;;;;26.10;16.98;;;;;;;;;;5092935;28;20384;-71
2021/03/02 03:50:15;;;;;;;30.08;17.35;;;;;;;;;;5092555;28;20028;-72
2021/03/02 03:52:43;;;;;;;24.50;15.70;;;;;;;;;;5092861;28;20020;-72
2021/03/02 03:55:11;;;;;;;23.17;14.77;;;;;;;;;;5092979;28;20426;-72
2021/03/02 03:57:39;;;;;;;21.05;13.50;;;;;;;;;;5092549;28;20036;-72
2021/03/02 04:00:06;;;;;;;26.92;16.58;;;;;;;;;;5092830;28;20403;-71
2021/03/02 04:02:33;;;;;;;26.02;15.32;;;;;;;;;;5092763;28;20460;-71
2021/03/02 04:05:01;;;;;;;25.88;14.73;;;;;;;;;;5092482;28;20024;-71
2021/03/02 04:07:28;;;;;;;30.17;17.30;;;;;;;;;;5092714;28;20028;-71
2021/03/02 04:09:54;;;;;;;21.58;13.75;;;;;;;;;;5092582;28;20052;-72
2021/03/02 04:12:21;;;;;;;28.08;15.02;;;;;;;;;;5092259;28;20032;-71
2021/03/02 04:14:47;;;;;;;31.17;15.57;;;;;;;;;;5093086;28;20069;-71
2021/03/02 04:17:14;;;;;;;24.83;14.18;;;;;;;;;;5092750;28;20024;-71
2021/03/02 04:19:40;;;;;;;23.23;13.90;;;;;;;;;;5091866;28;20069;-71
2021/03/02 04:22:06;;;;;;;23.55;13.63;;;;;;;;;;5092561;28;20028;-71
2021/03/02 04:24:32;;;;;;;30.27;15.15;;;;;;;;;;5092458;28;20069;-71
2021/03/02 04:26:58;;;;;;;21.95;13.45;;;;;;;;;;5092101;28;20024;-71
2021/03/02 04:29:25;;;;;;;35.35;20.08;;;;;;;;;;5092389;28;20440;-71
2021/03/02 04:31:51;;;;;;;36.42;17.02;;;;;;;;;;5091082;28;20020;-71
2021/03/02 04:34:17;;;;;;;25.90;15.55;;;;;;;;;;5092064;28;20024;-71
2021/03/02 04:36:43;;;;;;;24.50;15.50;;;;;;;;;;5092627;28;20437;-71
2021/03/02 04:39:10;;;;;;;23.08;14.35;;;;;;;;;;5092049;28;20043;-72
2021/03/02 04:41:36;;;;;;;28.90;15.73;;;;;;;;;;5092266;28;20039;-72
2021/03/02 04:44:02;;;;;;;26.77;15.50;;;;;;;;;;5092363;28;20028;-71
2021/03/02 04:46:28;;;;;;;34.15;16.95;;;;;;;;;;5091882;28;20021;-71
2021/03/02 04:48:55;;;;;;;29.67;16.67;;;;;;;;;;5092211;28;20391;-71
2021/03/02 04:51:21;;;;;;;27.48;16.77;;;;;;;;;;5092186;28;20034;-72
2021/03/02 04:53:47;;;;;;;24.23;15.95;;;;;;;;;;5091982;28;20043;-72
2021/03/02 04:56:13;;;;;;;24.85;13.68;;;;;;;;;;5092346;28;20020;-72
2021/03/02 04:58:39;;;;;;;26.17;15.35;;;;;;;;;;5092187;28;20099;-72
2021/03/02 05:01:06;;;;;;;27.38;15.77;;;;;;;;;;5091691;28;20376;-71
2021/03/02 05:03:32;;;;;;;27.85;15.20;;;;;;;;;;5092184;28;20023;-72
2021/03/02 05:05:58;;;;;;;26.15;16.08;;;;;;;;;;5092133;28;20074;-72
2021/03/02 05:08:24;;;;;;;33.35;17.05;;;;;;;;;;5091701;28;20072;-70
2021/03/02 05:10:50;;;;;;;35.70;21.55;;;;;;;;;;5092156;28;20040;-71
2021/03/02 05:13:16;;;;;;;43.78;22.88;;;;;;;;;;5092173;28;20391;-72
2021/03/02 05:15:43;;;;;;;44.15;23.08;;;;;;;;;;5091786;28;20476;-71
2021/03/02 05:18:09;;;;;;;47.25;26.40;;;;;;;;;;5091750;28;20094;-71
2021/03/02 05:20:35;;;;;;;40.40;23.48;;;;;;;;;;5091936;28;20100;-71
2021/03/02 05:23:01;;;;;;;48.38;25.95;;;;;;;;;;5090169;28;20400;-71
2021/03/02 05:25:27;;;;;;;38.08;20.83;;;;;;;;;;5090880;28;20032;-71
2021/03/02 05:27:53;;;;;;;34.40;19.83;;;;;;;;;;5094232;28;20041;-71
2021/03/02 05:30:20;;;;;;;34.97;21.33;;;;;;;;;;5095120;28;20167;-71
2021/03/02 05:32:46;;;;;;;30.30;19.17;;;;;;;;;;5095470;28;20020;-70
2021/03/02 05:35:12;;;;;;;34.00;18.77;;;;;;;;;;5095716;28;20407;-71
2021/03/02 05:37:39;;;;;;;33.47;17.67;;;;;;;;;;5095013;28;20077;-71
2021/03/02 05:40:05;;;;;;;32.45;18.55;;;;;;;;;;5095260;28;20035;-71
2021/03/02 05:42:33;;;;;;;31.95;17.38;;;;;;;;;;5094861;28;20021;-72
2021/03/02 05:45:00;;;;;;;28.75;17.55;;;;;;;;;;5093924;28;20027;-71
2021/03/02 05:47:26;;;;;;;36.13;18.88;;;;;;;;;;5095253;28;20465;-71
2021/03/02 05:49:52;;;;;;;34.67;20.80;;;;;;;;;;5094733;28;20101;-71
2021/03/02 05:52:18;;;;;;;36.10;19.33;;;;;;;;;;5095121;28;20460;-71
2021/03/02 05:54:45;;;;;;;31.05;18.88;;;;;;;;;;5095262;28;20421;-72
2021/03/02 05:57:11;;;;;;;28.77;18.70;;;;;;;;;;5094809;28;20099;-72
2021/03/02 05:59:37;;;;;;;27.52;17.45;;;;;;;;;;5094816;28;20063;-70
2021/03/02 06:02:03;;;;;;;31.33;18.50;;;;;;;;;;5093604;28;20031;-70
2021/03/02 06:04:30;;;;;;;31.98;20.88;;;;;;;;;;5094272;28;20091;-71
2021/03/02 06:07:02;;;;;;;37.55;23.77;;;;;;;;;;5094668;28;20036;-72
2021/03/02 06:09:29;;;;;;;36.47;20.90;;;;;;;;;;5094412;28;20095;-72
2021/03/02 06:12:05;;;;;;;32.08;19.02;;;;;;;;;;5094399;28;20020;-72
2021/03/02 06:14:34;;;;;;;34.88;20.17;;;;;;;;;;5089893;28;20075;-71
2021/03/02 06:17:01;;;;;;;30.42;17.77;;;;;;;;;;5087430;28;20059;-79
2021/03/02 06:19:48;;;;;;;28.00;17.40;;;;;;;;;;5089379;28;20052;-76
2021/03/02 06:22:33;;;;;;;25.90;16.35;;;;;;;;;;5091268;28;20035;-77
2021/03/02 06:24:59;;;;;;;34.92;19.65;;;;;;;;;;5070653;28;20027;-76
2021/03/02 06:27:25;;;;;;;36.92;20.95;;;;;;;;;;5077072;28;20756;-74
2021/03/02 06:30:07;;;;;;;36.50;19.50;;;;;;;;;;5069573;28;20032;-73
2021/03/02 06:32:37;;;;;;;27.55;17.67;;;;;;;;;;5075908;28;20047;-76
2021/03/02 06:35:04;;;;;;;29.38;16.92;;;;;;;;;;5078190;28;20030;-73
2021/03/02 06:37:40;;;;;;;25.58;15.75;;;;;;;;;;5080834;28;20047;-72
2021/03/02 06:40:07;;;;;;;27.20;17.08;;;;;;;;;;5076659;28;20422;-73
2021/03/02 06:42:37;;;;;;;29.63;18.38;;;;;;;;;;5074695;28;20031;-70
2021/03/02 06:45:08;;;;;;;25.80;14.95;;;;;;;;;;5072332;28;20050;-72
2021/03/02 06:47:36;;;;;;;28.05;16.27;;;;;;;;;;5073658;28;20043;-72
2021/03/02 06:50:03;;;;;;;27.10;16.90;;;;;;;;;;5074773;28;20024;-72
2021/03/02 06:52:37;;;;;;;35.80;18.98;;;;;;;;;;5070683;28;20571;-74
2021/03/02 06:55:04;;;;;;;36.30;18.40;;;;;;;;;;5070658;28;20078;-73
2021/03/02 06:57:30;;;;;;;24.98;15.23;;;;;;;;;;5075912;28;20046;-74
2021/03/02 06:59:57;;;;;;;21.83;13.90;;;;;;;;;;5074856;28;20035;-72
2021/03/02 07:02:43;;;;;;;27.95;14.25;;;;;;;;;;5074999;28;20016;-71
2021/03/02 07:05:09;;;;;;;24.00;14.32;;;;;;;;;;5071478;28;20024;-72
2021/03/02 07:07:36;;;;;;;21.08;13.60;;;;;;;;;;5069920;28;20034;-74
2021/03/02 07:10:03;;;;;;;31.20;17.17;;;;;;;;;;5069381;28;20032;-75
2021/03/02 07:12:32;;;;;;;23.00;14.00;;;;;;;;;;5070200;28;20052;-72
2021/03/02 07:15:00;;;;;;;23.90;14.98;;;;;;;;;;5072773;28;20373;-73
2021/03/02 07:17:27;;;;;;;26.00;14.32;;;;;;;;;;5076762;28;20024;-73
2021/03/02 07:19:53;;;;;;;30.63;16.80;;;;;;;;;;5073699;28;20032;-73
2021/03/02 07:22:20;;;;;;;30.75;15.98;;;;;;;;;;5075587;28;20024;-74
2021/03/02 07:24:47;;;;;;;24.73;13.43;;;;;;;;;;5071806;28;20028;-74
2021/03/02 07:27:13;;;;;;;25.88;16.48;;;;;;;;;;5073831;28;20028;-72
2021/03/02 07:29:39;;;;;;;25.58;14.40;;;;;;;;;;5071790;28;20040;-72
2021/03/02 07:32:08;;;;;;;22.38;14.35;;;;;;;;;;5076150;28;20113;-71
2021/03/02 07:34:34;;;;;;;20.75;12.55;;;;;;;;;;5072276;28;20020;-71
2021/03/02 07:37:01;;;;;;;23.55;14.43;;;;;;;;;;5070586;28;20030;-72
2021/03/02 07:39:27;;;;;;;20.10;11.98;;;;;;;;;;5077600;28;20035;-72
2021/03/02 07:41:55;;;;;;;20.02;13.52;;;;;;;;;;5072621;28;20009;-71
2021/03/02 07:44:21;;;;;;;19.50;12.48;;;;;;;;;;5071440;28;20062;-72
2021/03/02 07:46:56;;;;;;;23.77;13.23;;;;;;;;;;5075417;28;20027;-72
2021/03/02 07:49:25;;;;;;;15.65;10.45;;;;;;;;;;5071748;28;20020;-73
2021/03/02 07:51:57;;;;;;;19.52;9.82;;;;;;;;;;5071903;28;20032;-74
2021/03/02 07:54:24;;;;;;;18.10;10.13;;;;;;;;;;5068744;28;20546;-73
2021/03/02 07:57:06;;;;;;;19.80;11.20;;;;;;;;;;5079967;28;20047;-73
2021/03/02 07:59:32;;;;;;;26.00;13.82;;;;;;;;;;5072349;28;20093;-72
2021/03/02 08:02:17;;;;;;;16.48;11.40;;;;;;;;;;5074712;28;20028;-72
2021/03/02 08:04:44;;;;;;;22.45;11.50;;;;;;;;;;5073481;28;20028;-72
2021/03/02 08:07:20;;;;;;;17.50;11.13;;;;;;;;;;5078397;28;20024;-76
2021/03/02 08:09:47;;;;;;;22.35;12.30;;;;;;;;;;5076431;28;20058;-73
2021/03/02 08:12:32;;;;;;;17.52;11.50;;;;;;;;;;5075331;28;20098;-74
2021/03/02 08:15:00;;;;;;;14.45;9.32;;;;;;;;;;5073747;28;20058;-74
2021/03/02 08:17:27;;;;;;;20.13;10.85;;;;;;;;;;5073298;28;20020;-73
2021/03/02 08:20:04;;;;;;;18.65;10.13;;;;;;;;;;5075422;28;20580;-73
2021/03/02 08:22:34;;;;;;;16.65;9.45;;;;;;;;;;5074690;28;20032;-74
2021/03/02 08:25:05;;;;;;;15.25;8.80;;;;;;;;;;5074949;28;21278;-74
2021/03/02 08:27:37;;;;;;;12.27;5.95;;;;;;;;;;5070433;28;20106;-72
2021/03/02 08:30:07;;;;;;;9.85;4.95;;;;;;;;;;5077041;28;20024;-72
2021/03/02 08:32:33;;;;;;;7.45;3.80;;;;;;;;;;5080387;28;20032;-72
2021/03/02 08:35:06;;;;;;;12.10;4.40;;;;;;;;;;5075237;28;20043;-73
2021/03/02 08:37:32;;;;;;;;;;;;;;;;;;5073945;28;20093;-71
2021/03/02 08:39:58;;;;;;;15.48;8.93;;;;;;;;;;5076699;28;20352;-70
2021/03/02 08:42:24;;;;;;;11.05;6.13;;;;;;;;;;5077069;28;20016;-70
2021/03/02 08:45:03;;;;;;;6.65;3.20;;;;;;;;;;5068810;28;20066;-72
2021/03/02 08:47:29;;;;;;;9.98;4.63;;;;;;;;;;5055099;28;20099;-73
2021/03/02 08:49:55;;;;;;;12.05;5.35;;;;;;;;;;5058501;28;20127;-72
2021/03/02 08:53:01;;;;;;;7.50;3.88;;;;;;;;;;5030484;28;20497;-75
2021/03/02 08:55:37;;;;;;;9.50;4.63;;;;;;;;;;5031077;28;20044;-75
2021/03/02 08:58:03;;;;;;;8.55;3.60;;;;;;;;;;5026599;28;20702;-76
2021/03/02 09:00:30;;;;;;;9.02;5.30;;;;;;;;;;5029590;28;20047;-73
2021/03/02 09:04:19;;;;;;;7.22;2.72;;;;;;;;;;5079127;27;1057490;-73
2021/03/02 09:06:47;;;;;;;10.88;4.80;;;;;;;;;;5111701;27;20018;-73
2021/03/02 09:09:49;;;;;;;9.05;3.97;;;;;;;;;;5059042;27;21296;-73
2021/03/02 09:13:46;;;;;;;8.38;4.30;;;;;;;;;;5115723;27;21174;-72
2021/03/02 09:16:22;;;;;;;7.30;3.85;;;;;;;;;;5106966;28;20492;-74
2021/03/02 09:19:00;;;;;;;9.93;4.50;;;;;;;;;;5103209;28;20059;-72
2021/03/02 09:22:24;;;;;;;7.38;3.80;;;;;;;;;;5066261;28;20445;-76
2021/03/02 09:24:57;;;;;;;9.82;3.85;;;;;;;;;;5066119;28;20029;-74
2021/03/02 09:29:44;;;;;;;13.80;7.20;;;;;;;;;;5107253;27;20383;-71
2021/03/02 09:32:11;;;;;;;9.80;4.65;;;;;;;;;;5106578;28;20036;-71
2021/03/02 09:34:39;;;;;;;7.30;3.88;;;;;;;;;;5107298;28;20101;-69
2021/03/02 09:37:10;;;;;;;7.63;4.45;;;;;;;;;;5107501;28;20031;-73
2021/03/02 09:39:37;;;;;;;10.68;4.75;;;;;;;;;;5106492;28;20055;-70
2021/03/02 09:42:14;;;;;;;10.48;3.50;;;;;;;;;;5104919;28;20051;-71
2021/03/02 09:44:44;;;;;;;7.53;3.83;;;;;;;;;;5108481;28;20024;-70
2021/03/02 09:48:23;;;;;;;8.25;3.65;;;;;;;;;;5109266;27;20904;-72
2021/03/02 09:50:49;;;;;;;8.48;3.97;;;;;;;;;;5107135;28;20051;-72
2021/03/02 09:55:08;;;;;;;7.80;3.60;;;;;;;;;;5109671;27;20751;-72
2021/03/02 09:57:34;;;;;;;10.05;3.80;;;;;;;;;;5107694;28;20027;-70
2021/03/02 10:00:10;;;;;;;8.40;4.40;;;;;;;;;;5107684;28;20019;-69
2021/03/02 10:04:28;;;;;;;11.73;5.53;;;;;;;;;;5086376;27;20463;-73
2021/03/02 10:07:09;;;;;;;10.38;5.55;;;;;;;;;;5090778;28;20036;-72
2021/03/02 10:09:35;;;;;;;9.13;5.55;;;;;;;;;;5088796;28;20020;-73
2021/03/02 10:13:39;;;;;;;10.10;5.18;;;;;;;;;;5128234;27;20128;-75
2021/03/02 10:16:16;;;;;;;12.00;6.15;;;;;;;;;;5107353;28;20099;-74
2021/03/02 10:18:55;;;;;;;9.38;4.97;;;;;;;;;;5079848;28;20031;-72
2021/03/02 10:21:37;;;;;;;8.15;4.68;;;;;;;;;;5098259;28;20023;-73
2021/03/02 10:24:03;;;;;;;8.98;5.03;;;;;;;;;;5104730;28;20035;-72
2021/03/02 10:27:16;;;;;;;10.23;5.38;;;;;;;;;;5127857;27;20309;-72
2021/03/02 10:32:44;;;;;;;16.27;6.90;;;;;;;;;;5108519;27;20884;-72
2021/03/02 10:35:10;;;;;;;13.20;5.75;;;;;;;;;;5107150;28;20027;-70
2021/03/02 10:37:37;;;;;;;10.13;5.00;;;;;;;;;;5109217;28;20031;-72
2021/03/02 10:40:03;;;;;;;10.30;5.88;;;;;;;;;;5106715;28;20039;-70
2021/03/02 10:42:29;;;;;;;11.18;5.53;;;;;;;;;;5108523;28;20046;-69
2021/03/02 10:44:55;;;;;;;10.70;5.28;;;;;;;;;;5105884;28;20020;-70
2021/03/02 10:47:21;;;;;;;9.95;5.22;;;;;;;;;;5105463;28;20416;-69
2021/03/02 10:49:48;;;;;;;11.60;7.35;;;;;;;;;;5105019;28;20039;-69
2021/03/02 10:53:09;;;;;;;10.05;4.82;;;;;;;;;;5066895;28;20585;-70
2021/03/02 10:57:26;;;;;;;15.05;6.75;;;;;;;;;;5128986;27;20309;-72
2021/03/02 10:59:52;;;;;;;11.02;5.45;;;;;;;;;;5109310;28;20024;-70
2021/03/02 11:02:18;;;;;;;16.23;6.53;;;;;;;;;;5110042;28;20024;-72
2021/03/02 11:04:44;;;;;;;9.10;5.40;;;;;;;;;;5109761;28;20383;-74
2021/03/02 11:08:11;;;;;;;14.63;7.25;;;;;;;;;;5109792;27;20385;-76
2021/03/02 11:10:37;;;;;;;11.43;6.47;;;;;;;;;;5109917;28;20036;-68
2021/03/02 11:13:03;;;;;;;11.80;6.25;;;;;;;;;;5109091;28;20032;-68
2021/03/02 11:15:30;;;;;;;10.93;4.78;;;;;;;;;;5109930;28;20020;-69
2021/03/02 11:17:56;;;;;;;11.35;5.63;;;;;;;;;;5109810;28;20031;-68
2021/03/02 11:20:22;;;;;;;11.35;5.75;;;;;;;;;;5108840;28;20024;-67
2021/03/02 11:22:49;;;;;;;16.75;8.88;;;;;;;;;;5109374;28;20426;-67
2021/03/02 11:25:18;;;;;;;12.95;6.60;;;;;;;;;;5109490;28;20420;-67
2021/03/02 11:27:47;;;;;;;12.27;6.57;;;;;;;;;;5109350;28;20447;-68
2021/03/02 11:30:15;;;;;;;13.20;5.95;;;;;;;;;;5108859;28;20045;-67
2021/03/02 11:32:41;;;;;;;9.48;6.03;;;;;;;;;;5108370;28;20039;-68
2021/03/02 11:35:08;;;;;;;13.20;7.00;;;;;;;;;;5108645;28;20024;-67
2021/03/02 11:37:38;;;;;;;11.45;5.50;;;;;;;;;;5108928;28;20044;-67
2021/03/02 11:40:07;;;;;;;11.48;5.78;;;;;;;;;;5108532;28;20016;-67
2021/03/02 11:42:33;;;;;;;11.93;6.90;;;;;;;;;;5108152;28;20110;-68
2021/03/02 11:46:29;;;;;;;13.45;7.30;;;;;;;;;;5109221;27;20795;-67
2021/03/02 11:48:55;;;;;;;12.23;7.32;;;;;;;;;;5107635;28;20110;-67
2021/03/02 11:51:21;;;;;;;12.48;6.43;;;;;;;;;;5123724;28;20496;-68
2021/03/02 11:53:48;;;;;;;10.60;5.93;;;;;;;;;;5108782;28;20028;-65
2021/03/02 11:56:14;;;;;;;20.52;8.80;;;;;;;;;;5107715;28;20035;-68
2021/03/02 11:58:40;;;;;;;20.45;9.95;;;;;;;;;;5107490;28;20020;-67
2021/03/02 12:01:06;;;;;;;12.50;7.40;;;;;;;;;;5108943;28;20022;-68
2021/03/02 12:03:33;;;;;;;10.48;6.38;;;;;;;;;;5104604;28;20712;-67
2021/03/02 12:05:59;;;;;;;15.68;7.57;;;;;;;;;;5107252;28;20031;-68
2021/03/02 12:08:26;;;;;;;11.43;6.97;;;;;;;;;;5107526;28;20023;-68
2021/03/02 12:10:52;;;;;;;14.80;8.02;;;;;;;;;;5103925;28;20049;-68
2021/03/02 12:13:19;;;;;;;15.40;8.13;;;;;;;;;;5107508;28;20057;-68
2021/03/02 12:15:45;;;;;;;12.98;7.57;;;;;;;;;;5104402;28;20027;-69
2021/03/02 12:18:11;;;;;;;15.75;8.57;;;;;;;;;;5107427;28;20067;-69
2021/03/02 12:20:37;;;;;;;12.65;7.43;;;;;;;;;;5109103;28;20464;-69
2021/03/02 12:23:04;;;;;;;15.50;9.40;;;;;;;;;;5108681;28;20023;-67
2021/03/02 12:25:30;;;;;;;15.00;8.23;;;;;;;;;;5106848;28;20032;-67
2021/03/02 12:27:57;;;;;;;13.65;7.47;;;;;;;;;;5107063;28;20472;-67
2021/03/02 12:33:29;;;;;;;16.60;8.68;;;;;;;;;;5068898;28;20383;-69
2021/03/02 12:35:55;;;;;;;14.68;9.38;;;;;;;;;;5069060;28;20029;-68
2021/03/02 12:38:22;;;;;;;15.02;8.13;;;;;;;;;;5068313;28;20397;-69
2021/03/02 12:40:48;;;;;;;14.30;8.63;;;;;;;;;;5068225;28;20521;-69
2021/03/02 12:43:14;;;;;;;16.95;8.73;;;;;;;;;;5065925;28;20025;-69
2021/03/02 12:45:41;;;;;;;16.77;9.70;;;;;;;;;;5067793;28;20047;-68
2021/03/02 12:48:07;;;;;;;17.60;9.40;;;;;;;;;;5069147;28;20099;-69
2021/03/02 12:50:33;;;;;;;22.10;12.60;;;;;;;;;;5069065;28;20025;-69
2021/03/02 12:52:59;;;;;;;25.67;14.85;;;;;;;;;;5066468;28;20041;-68
2021/03/02 12:55:25;;;;;;;17.92;10.93;;;;;;;;;;5068196;28;20083;-68
2021/03/02 12:57:52;;;;;;;31.52;14.77;;;;;;;;;;5068350;28;20056;-68
2021/03/02 13:00:18;;;;;;;20.35;12.77;;;;;;;;;;5067478;28;20119;-68
2021/03/02 13:02:46;;;;;;;16.88;10.70;;;;;;;;;;5067487;28;20091;-68
2021/03/02 13:05:12;;;;;;;17.55;10.30;;;;;;;;;;5068351;28;20524;-68
2021/03/02 13:07:38;;;;;;;17.85;11.52;;;;;;;;;;5067503;28;20055;-67
2021/03/02 13:10:06;;;;;;;15.88;9.95;;;;;;;;;;5068295;28;20024;-68
2021/03/02 13:12:32;;;;;;;13.90;8.00;;;;;;;;;;5063024;28;20166;-67
2021/03/02 13:14:58;;;;;;;13.52;8.65;;;;;;;;;;5060837;28;20032;-67
2021/03/02 13:17:25;;;;;;;16.75;9.00;;;;;;;;;;5064553;28;20024;-67
2021/03/02 13:19:51;;;;;;;16.20;9.35;;;;;;;;;;5064792;28;20377;-68
2021/03/02 13:22:17;;;;;;;15.38;9.60;;;;;;;;;;5067426;28;20103;-69
2021/03/02 13:24:44;;;;;;;16.95;9.23;;;;;;;;;;5068157;28;20493;-69
2021/03/02 13:27:11;;;;;;;16.60;9.48;;;;;;;;;;5067384;28;20054;-68
2021/03/02 13:29:41;;;;;;;16.25;8.23;;;;;;;;;;5059399;28;20028;-68
2021/03/02 13:32:08;;;;;;;16.38;10.38;;;;;;;;;;5065767;28;20052;-70
2021/03/02 13:34:35;;;;;;;15.05;9.65;;;;;;;;;;5066629;28;20029;-69
2021/03/02 13:37:02;;;;;;;17.30;9.52;;;;;;;;;;5066724;28;20104;-69
2021/03/02 13:39:30;;;;;;;25.38;12.98;;;;;;;;;;5062754;28;20020;-71
2021/03/02 13:41:57;;;;;;;17.67;10.30;;;;;;;;;;5066961;28;20451;-69
2021/03/02 13:44:24;;;;;;;18.42;10.73;;;;;;;;;;5056052;28;20055;-69
2021/03/02 13:46:52;;;;;;;40.42;15.55;;;;;;;;;;5052996;28;20036;-68
2021/03/02 13:49:19;;;;;;;20.55;11.25;;;;;;;;;;5053619;28;20028;-68
2021/03/02 13:51:46;;;;;;;21.98;13.90;;;;;;;;;;5054043;28;20025;-67
2021/03/02 13:54:13;;;;;;;16.42;9.82;;;;;;;;;;5054085;28;20029;-67
2021/03/02 13:56:40;;;;;;;13.25;8.93;;;;;;;;;;5053427;28;20036;-68
2021/03/02 13:59:06;;;;;;;16.20;10.95;;;;;;;;;;5053716;28;20029;-67
2021/03/02 14:01:33;;;;;;;16.83;10.43;;;;;;;;;;5053635;28;20093;-68
2021/03/02 14:04:02;;;;;;;15.15;8.98;;;;;;;;;;5053752;28;20029;-68
2021/03/02 14:06:29;;;;;;;15.07;9.40;;;;;;;;;;5053442;28;20029;-69
2021/03/02 14:08:56;;;;;;;17.73;10.68;;;;;;;;;;5052036;28;20028;-67
2021/03/02 14:11:23;;;;;;;25.08;14.95;;;;;;;;;;5053010;28;20025;-67
2021/03/02 14:13:50;;;;;;;18.90;12.60;;;;;;;;;;5054554;28;20084;-67
2021/03/02 14:16:17;;;;;;;15.93;9.88;;;;;;;;;;5053958;28;20100;-68
2021/03/02 14:18:43;;;;;;;15.10;10.15;;;;;;;;;;5054286;28;20021;-67
2021/03/02 14:21:10;;;;;;;15.25;9.65;;;;;;;;;;5054230;28;20023;-67
2021/03/02 14:23:36;;;;;;;15.93;10.18;;;;;;;;;;5052486;28;20021;-67
2021/03/02 14:26:03;;;;;;;15.82;10.63;;;;;;;;;;5052411;28;20115;-68
2021/03/02 14:28:29;;;;;;;17.13;9.75;;;;;;;;;;5054031;28;20028;-68
2021/03/02 14:30:56;;;;;;;18.67;10.13;;;;;;;;;;5052458;28;20025;-68
2021/03/02 14:33:23;;;;;;;18.33;10.55;;;;;;;;;;5053885;28;20102;-68
2021/03/02 14:35:49;;;;;;;19.58;11.23;;;;;;;;;;5053916;28;20025;-67
2021/03/02 14:38:15;;;;;;;17.67;10.38;;;;;;;;;;5053348;28;20366;-68
2021/03/02 14:40:41;;;;;;;17.92;11.32;;;;;;;;;;5052475;28;20025;-68
2021/03/02 14:43:10;;;;;;;17.85;10.50;;;;;;;;;;5053703;28;20028;-67
2021/03/02 14:45:39;;;;;;;18.48;11.57;;;;;;;;;;5053247;28;20497;-68
2021/03/02 14:48:11;;;;;;;20.60;10.68;;;;;;;;;;5053778;28;20029;-67
2021/03/02 14:50:40;;;;;;;24.90;14.45;;;;;;;;;;5053192;28;20062;-67
2021/03/02 14:53:07;;;;;;;14.80;9.77;;;;;;;;;;5052681;28;20033;-68